Página principal
METAR-TAF:

METAR-TAF

Aeroportos :

Aeroporto Internacional de El Salvador

El Salvador, El Salvador

latitude: 13-26N, longitude: 089-03W, altura: 25 m

Observação actual do tempo

O boletim foi feito há 1 hora e 0 minutos, às 11:50 UTC
Vento 8 kt de nor-nordeste
Temperatura 25°C
Humidade 69%
Pressão 1011 hPa
Visibilidade 10 km ou mais
sem nuvens abaixo de 1500 metros e sem cumulonimbus

METAR: MSLP 181150Z 02008KT CAVOK 25/19 Q1010 A2984 NOSIG

Hora: 06:50 (12:50 UTC)

Previsão

O boletim foi feito há 3 horas e 25 minutos, às 09:25 UTC
Previsão válida de 18 às 12 UTC a 19 às 12 UTC
Vento 10 kt de nor-nordeste
Visibilidade 10 km ou mais
sem nuvens abaixo de 1500 metros e sem cumulonimbus
Temporariamente
de 18 às 20 UTC a 19 às 01 UTC
Vento 10 kt de su-sudoeste
Visibilidade 10 km ou mais
Poucas nuvensa uma altura de 4300 ft

TAF: MSLP 180925Z 1812/1912 03010KT CAVOK TX34/1818Z TN23/1912Z TEMPO 1820/1901 21010KT 9999 FEW043

Observações e previsões do tempo de mais de 4000 aeroportos (mensagens METAR e TAF).

As estações disponíveis são os pontos amarelos e vermelhos sobre o mapa.

Mova o rato sobre o mapa para ver o nome da estação.

Depois clique no ponto para visualizar as observações e previsões meteorológicas.

Para alterar o mapa : clique nos botões verdes com uma cruz preta para aumentar o zoom; no botão verde com uma pitada de zoom; ou nas setas verdes para mapas adjacentes.


METAR-TAF: